Impacts TAF Board INFO
FOR SITUATIONAL AWARENESS. NOT TO BE USED FOR FLIGHT PLANNING PURPOSES.
IDs:

KORD - Chicago/O'Hare Intl, IL, US

Issued at 1732 UTC 15 Dec 2017
Updated at 1953 UTC 15 Dec 2017
Potential Impact None Slight Moderate High
Time1951Z 15/20Z 15/21Z 15/22Z 15/23Z 16/00Z 16/01Z 16/02Z 16/03Z 16/04Z 16/05Z 16/06Z 16/07Z 16/08Z>>
Type OBS PRVL PRVL PRVL PRVL PRVL PRVL PRVL PRVL PRVL PRVL PRVL PRVL PRVL
VIS 10 >6 >6 >6 >6 >6 >6 >6 >6 >6 >6 >6 >6 >6
CIG 30 25 25 40 40 40 25 25 25 80 80 80 80 80
Cover OVC OVC OVC OVC OVC OVC OVC OVC OVC BKN BKN BKN BKN BKN
FltCat MVFR MVFR MVFR VFR VFR VFR MVFR MVFR MVFR VFR VFR VFR VFR VFR
WX -- -SN -SN -- -- -- -SHSN -SHSN -SHSN -- -- -- -- --
WDir 280 270 270 230 230 230 230 230 230 200 200 200 200 200
WSpd 13 14 14 9 9 9 7 7 7 7 7 7 7 7
WGst 19 22 22 -- -- -- -- -- -- -- -- -- -- --

Raw TAF
KORD 151732Z 1518/1624 29015G23KT P6SM SCT025 BKN040
  FM151900 27014G22KT P6SM -SN BKN025 OVC040
  FM152200 23009KT P6SM SCT025 OVC040
  FM160100 23007KT P6SM -SHSN BKN025 OVC040
  FM160400 20007KT P6SM SCT030 BKN080
  FM162100 16007KT P6SM FEW150


Raw METAR
KORD 151951Z 28013G19KT 10SM OVC030 00/M07 A2989 RMK AO2 SLP129 T00001072 $
KORD 151851Z 27012KT 10SM OVC038 M01/M08 A2989 RMK AO2 PK WND 28027/1755 SLP131 T10061083
KORD 151751Z 28014KT 10SM BKN041 00/M09 A2991 RMK AO2 SLP136 60000 T00001094 10000 21039 58004
KORD 151651Z 31017G27KT 10SM BKN040 BKN100 M02/M11 A2992 RMK AO2 PK WND 29029/1634 SLP142 T10171106

METAR Board
Radar Display
Forecast Discussion

FOR SITUATIONAL AWARENESS. NOT TO BE USED FOR FLIGHT PLANNING PURPOSES.